SBPL/PNZ METAR and TAF weather

Enter ICAO airport designator
Station Type Date Time Source
SBPL METAR 2020/07/07 10:15 UTC NOAA

SBPL 071015Z 16003KT CAVOK 20/16 Q1017


Station Type Date Time Source
SBPL Decoded METAR 2020/07/07 10:15 UTC NOAA

Petrolina , Brazil (SBPL) 09-21S 040-33W
Jul 07, 2020 - 06:15 AM EDT / 2020.07.07 1015 UTC
Wind: from the SSE (160 degrees) at 3 MPH (3 KT):0
Visibility: greater than 7 mile(s):0
Temperature: 68 F (20 C)
Dew Point: 60 F (16 C)
Relative Humidity: 77%
Pressure (altimeter): 30.03 in. Hg (1017 hPa)
ob: SBPL 071015Z 16003KT CAVOK 20/16 Q1017
cycle: 10

Station Type Date Time Source
SBPL TAF 2020/07/07 12:21 UTC NOAA

TAF SBPL 070900Z 0712/0812 15010KT 9999 SCT030 TX30/0717Z TN19/0807Z
RMK PEB

Example: see airport list